»·PEaware :: N713AK KSAN-KSFO

N713AK :: KSAN-KSFO

FLIGHT INFORMATION

Flight Status: Arrived
Operator: Privately registered:
United States
More flights under this callsign
Pilot: Alfredo R. (12181)
Aircraft: Unknown
(HA4T)
More flights by this aircraft type
Origin: KSAN San Diego Intl-Lindbergh
United States
Destination: KSFO San Francisco Intl
United States
More flights between these airports :: More routes between these airports
Route: PADRZ2 IKAYE RIZIN SPLNT STOKD SERFR SERFR4
File this flight plan on PilotEdge
Remarks: RMK / SIMBRIEF
Altitude:
(Current/Filed)
38,000ft
Speed:
(Current/Filed)
473kts
Departed: 19-Oct-20 05:25 PM
Arrived: 19-Oct-20 06:33 PM
Distance/Time
Traveled:
389nm/1:08
Distance/Time
To Go:
Arrived

Flight Plot

Page will automatically refresh every two minutes.

Flight plan parsing failed; only flown route is shown


Map Options




Map Legend


Flown Route
Filed Route
Departure Airport
Arrival Airport
Navaid (VOR, NDB)
Fix

Horizontal Profiles

Position Reports

Time Latitude Longitude Heading Altitude Ground
Speed
19-Oct-20 16:58 32.733328 -117.178802 17 23ft 0kts
19-Oct-20 16:59 32.733328 -117.178802 17 23ft 0kts
19-Oct-20 17:00 32.733328 -117.178802 17 23ft 0kts
19-Oct-20 17:01 32.733328 -117.178802 17 23ft 0kts
19-Oct-20 17:02 32.733328 -117.178802 17 23ft 0kts
19-Oct-20 17:03 32.733328 -117.178802 17 23ft 0kts
19-Oct-20 17:04 32.733328 -117.178802 17 23ft 0kts
19-Oct-20 17:05 32.733328 -117.178802 17 23ft 0kts
19-Oct-20 17:06 32.733328 -117.178802 17 23ft 0kts
19-Oct-20 17:07 32.733328 -117.178802 17 23ft 0kts
19-Oct-20 17:09 32.733328 -117.178802 17 23ft 0kts
19-Oct-20 17:10 32.733328 -117.178802 17 23ft 0kts
19-Oct-20 17:11 32.733328 -117.178802 17 23ft 0kts
19-Oct-20 17:12 32.733328 -117.178802 17 23ft 0kts
19-Oct-20 17:13 32.733328 -117.178802 16 23ft 0kts
19-Oct-20 17:14 32.733328 -117.178802 17 23ft 0kts
19-Oct-20 17:15 32.733332 -117.178801 17 23ft 0kts
19-Oct-20 17:16 32.733025 -117.179740 195 23ft 4kts
19-Oct-20 17:17 32.732969 -117.179758 194 23ft 0kts
19-Oct-20 17:18 32.732969 -117.179758 194 23ft 0kts
19-Oct-20 17:19 32.732969 -117.179758 194 23ft 0kts
19-Oct-20 17:20 32.732969 -117.179758 194 23ft 0kts
19-Oct-20 17:21 32.732969 -117.179758 194 23ft 0kts
19-Oct-20 17:22 32.731324 -117.175874 126 23ft 14kts
19-Oct-20 17:23 32.731029 -117.175568 144 23ft 0kts
19-Oct-20 17:23 32.730999 -117.175542 143 23ft 4kts
19-Oct-20 17:25 32.737034 -117.203208 289 438ft 209kts
19-Oct-20 17:25 32.763035 -117.261337 305 2568ft 245kts
19-Oct-20 17:27 32.814235 -117.340935 308 5898ft 264kts
19-Oct-20 17:28 32.860412 -117.412595 308 9154ft 278kts
19-Oct-20 17:28 32.900526 -117.474884 307 12092ft 291kts
19-Oct-20 17:30 32.959292 -117.566359 307 16188ft 304kts
19-Oct-20 17:30 33.002795 -117.634253 306 19119ft 314kts
19-Oct-20 17:31 33.056430 -117.718133 305 22606ft 331kts
19-Oct-20 17:32 33.126613 -117.793379 316 22982ft 337kts
19-Oct-20 17:33 33.203583 -117.873414 312 25684ft 389kts
19-Oct-20 17:34 33.281740 -117.966648 313 28722ft 403kts
19-Oct-20 17:35 33.362794 -118.063498 313 31751ft 420kts
19-Oct-20 17:36 33.444280 -118.161165 313 34733ft 413kts
19-Oct-20 17:37 33.524664 -118.257776 313 37719ft 407kts
19-Oct-20 17:38 33.604675 -118.354226 313 37979ft 408kts
19-Oct-20 17:39 33.685487 -118.451910 313 37983ft 417kts
19-Oct-20 17:40 33.767058 -118.550808 313 37977ft 415kts
19-Oct-20 17:41 33.847867 -118.649513 312 37976ft 415kts
19-Oct-20 17:42 33.927979 -118.747305 313 37982ft 416kts
19-Oct-20 17:43 34.009792 -118.846708 312 37990ft 416kts
19-Oct-20 17:44 34.091020 -118.946301 312 37989ft 416kts
19-Oct-20 17:45 34.164174 -119.051400 301 37984ft 415kts
19-Oct-20 17:46 34.225218 -119.169520 301 37981ft 414kts
19-Oct-20 17:47 34.286293 -119.288346 301 37980ft 417kts
19-Oct-20 17:48 34.347508 -119.407887 301 37979ft 417kts
19-Oct-20 17:49 34.408864 -119.526920 305 37962ft 417kts
19-Oct-20 17:50 34.489392 -119.628671 313 37965ft 419kts
19-Oct-20 17:51 34.570584 -119.728701 312 37972ft 419kts
19-Oct-20 17:52 34.652248 -119.829609 312 37973ft 420kts
19-Oct-20 17:53 34.733922 -119.930846 312 37995ft 420kts
19-Oct-20 17:54 34.815817 -120.032654 312 38000ft 421kts
19-Oct-20 17:55 34.897848 -120.134942 312 38013ft 422kts
19-Oct-20 17:56 34.979601 -120.237194 312 38012ft 422kts
19-Oct-20 17:57 35.060029 -120.338081 312 38016ft 411kts
19-Oct-20 17:58 35.141696 -120.433238 315 38016ft 412kts
19-Oct-20 17:59 35.226062 -120.527839 315 38013ft 412kts
19-Oct-20 18:00 35.311157 -120.623566 316 38005ft 420kts
19-Oct-20 18:01 35.395669 -120.718865 315 38011ft 420kts
19-Oct-20 18:02 35.480840 -120.814883 317 37972ft 420kts
19-Oct-20 18:03 35.573653 -120.901794 320 37971ft 421kts
19-Oct-20 18:04 35.666709 -120.988305 320 37912ft 418kts
19-Oct-20 18:05 35.755901 -121.071489 321 36085ft 407kts
19-Oct-20 18:06 35.847311 -121.156963 322 34286ft 418kts
19-Oct-20 18:07 35.940187 -121.244060 322 32498ft 423kts
19-Oct-20 18:08 36.034314 -121.332612 322 30699ft 430kts
19-Oct-20 18:09 36.134005 -121.415853 328 28892ft 431kts
19-Oct-20 18:10 36.234075 -121.493971 327 27089ft 421kts
19-Oct-20 18:11 36.331133 -121.570008 327 25296ft 408kts
19-Oct-20 18:12 36.425231 -121.643956 327 23486ft 395kts
19-Oct-20 18:13 36.516053 -121.715534 327 21691ft 383kts
19-Oct-20 18:14 36.605170 -121.786024 327 19880ft 374kts
19-Oct-20 18:15 36.692206 -121.855023 327 18062ft 364kts
19-Oct-20 18:16 36.781847 -121.905365 346 16240ft 349kts
19-Oct-20 18:17 36.873253 -121.930929 346 14415ft 312kts
19-Oct-20 18:18 36.957686 -121.955338 341 12803ft 309kts
19-Oct-20 18:19 37.038760 -121.986905 341 11297ft 292kts
19-Oct-20 18:20 37.113184 -122.015968 341 10080ft 289kts
19-Oct-20 18:21 37.188936 -122.045622 341 8883ft 283kts
19-Oct-20 18:22 37.259723 -122.073387 341 7683ft 268kts
19-Oct-20 18:23 37.330236 -122.101132 342 6485ft 264kts
19-Oct-20 18:24 37.398104 -122.126945 344 5273ft 250kts
19-Oct-20 18:25 37.463695 -122.149752 344 4242ft 228kts
19-Oct-20 18:26 37.523144 -122.170732 344 3225ft 214kts
19-Oct-20 18:27 37.555186 -122.218364 298 2498ft 162kts
19-Oct-20 18:28 37.574336 -122.263901 299 1707ft 133kts
19-Oct-20 18:29 37.592361 -122.306677 298 960ft 140kts
19-Oct-20 18:30 37.609423 -122.347315 298 253ft 128kts
19-Oct-20 18:31 37.622135 -122.377642 298 19ft 70kts
19-Oct-20 18:32 37.624747 -122.381280 17 19ft 1kts
19-Oct-20 18:33 37.625326 -122.381750 310 19ft 8kts
19-Oct-20 18:34 37.627352 -122.382413 10 19ft 5kts
19-Oct-20 18:35 37.628314 -122.383055 297 19ft 0kts

Navigation Log

Ident Type
Flight plan parsing failed, navigation log unavailable